Погода Озеравана неделю

Витебская область, Белоруссия

24 - 30 мая
  • 24мая
    Сегодня
    +11°
    +24°
    Ясно и безоблачно
    ВремяПогодаТемператураВлажностьДавлениеВетер, м/сВероятность осадков
    00:00Небольшая облачность+16°C82 %755 мм3.7 м/с2 %
    03:00Небольшая облачность+14°C71 %756 мм4.8 м/с2 %
    06:00Облачно с прояснениями+13°C69 %757 мм4.7 м/с2 %
    09:00Ясно и безоблачно+18°C64 %757 мм4.8 м/с2 %
    12:00Ясно и безоблачно+22°C57 %758 мм4.6 м/с2 %
    15:00Ясно и безоблачно+24°C51 %757 мм4.9 м/с2 %
    18:00Ясно и безоблачно+23°C52 %757 мм4.8 м/с1 %
    21:00Ясно и безоблачно+19°C67 %756 мм3.2 м/с2 %
  • 25мая
    Суббота
    +12°
    +24°
    Практически безоблачно
    ВремяПогодаТемператураВлажностьДавлениеВетер, м/сВероятность осадков
    00:00Ясно и безоблачно+15°C70 %757 мм3.8 м/с2 %
    03:00Ясно и безоблачно+13°C75 %757 мм3.4 м/с2 %
    06:00Ясно и безоблачно+12°C76 %757 мм3.5 м/с1 %
    09:00Ясно и безоблачно+18°C69 %757 мм3.3 м/с2 %
    12:00Ясно и безоблачно+23°C57 %757 мм3.5 м/с2 %
    15:00Практически безоблачно+24°C46 %756 мм3.8 м/с10 %
    18:00Небольшая облачность+24°C48 %755 мм3.3 м/с16 %
    21:00Практически безоблачно+19°C72 %755 мм2.1 м/с6 %
  • 26мая
    Воскресенье
    +12°
    +24°
    Ясно и безоблачно
    ВремяПогодаТемператураВлажностьДавлениеВетер, м/сВероятность осадков
    00:00Практически безоблачно+15°C78 %755 мм2.7 м/с2 %
    03:00Практически безоблачно+13°C71 %755 мм2.8 м/с2 %
    06:00Ясно и безоблачно+13°C71 %756 мм2.5 м/с6 %
    09:00Ясно и безоблачно+19°C63 %756 мм1.7 м/с8 %
    12:00Ясно и безоблачно+23°C43 %757 мм3.0 м/с2 %
    15:00Ясно и безоблачно+24°C43 %756 мм2.5 м/с3 %
    18:00Ясно и безоблачно+24°C44 %756 мм1.7 м/с6 %
    21:00Ясно и безоблачно+21°C58 %756 мм1.0 м/с3 %
  • 27мая
    Понедельник
    +12°
    +26°
    Практически безоблачно
    ВремяПогодаТемператураВлажностьДавлениеВетер, м/сВероятность осадков
    00:00Облачно с прояснениями+13°C77 %756 мм2.1 м/с2 %
    03:00Ясно и безоблачно+13°C80 %756 мм1.3 м/с2 %
    06:00Ясно и безоблачно+13°C77 %757 мм0.4 м/с2 %
    09:00Ясно и безоблачно+20°C65 %757 мм0.3 м/с2 %
    12:00Практически безоблачно+24°C42 %757 мм0.5 м/с2 %
    15:00Практически безоблачно+25°C41 %757 мм1.1 м/с14 %
    18:00Ясно и безоблачно+25°C41 %756 мм0.3 м/с19 %
    21:00Ясно и безоблачно+22°C54 %755 мм0.4 м/с5 %
Мы используем cookies
Соглашаюсь